sensor_id;sensor_type;location;lat;lon;timestamp;temperature;humidity
15450;DHT22;7826;49.784;9.934;2022-08-25T00:00:20;19.80;88.50
15450;DHT22;7826;49.784;9.934;2022-08-25T00:02:47;19.80;88.70
15450;DHT22;7826;49.784;9.934;2022-08-25T00:05:14;19.80;89.20
15450;DHT22;7826;49.784;9.934;2022-08-25T00:07:41;19.70;89.70
15450;DHT22;7826;49.784;9.934;2022-08-25T00:10:08;19.70;90.00
15450;DHT22;7826;49.784;9.934;2022-08-25T00:12:34;19.60;90.20
15450;DHT22;7826;49.784;9.934;2022-08-25T00:15:03;19.60;90.50
15450;DHT22;7826;49.784;9.934;2022-08-25T00:17:30;19.60;90.80
15450;DHT22;7826;49.784;9.934;2022-08-25T00:19:56;19.50;91.10
15450;DHT22;7826;49.784;9.934;2022-08-25T00:22:23;19.50;91.30
15450;DHT22;7826;49.784;9.934;2022-08-25T00:24:50;19.50;91.60
15450;DHT22;7826;49.784;9.934;2022-08-25T00:27:16;19.50;91.80
15450;DHT22;7826;49.784;9.934;2022-08-25T00:29:43;19.40;92.00
15450;DHT22;7826;49.784;9.934;2022-08-25T00:32:09;19.40;92.20
15450;DHT22;7826;49.784;9.934;2022-08-25T00:34:37;19.40;92.30
15450;DHT22;7826;49.784;9.934;2022-08-25T00:37:05;19.40;92.40
15450;DHT22;7826;49.784;9.934;2022-08-25T00:39:35;19.40;92.60
15450;DHT22;7826;49.784;9.934;2022-08-25T00:42:02;19.30;92.60
15450;DHT22;7826;49.784;9.934;2022-08-25T00:44:31;19.30;92.80
15450;DHT22;7826;49.784;9.934;2022-08-25T00:47:00;19.30;93.10
15450;DHT22;7826;49.784;9.934;2022-08-25T00:49:44;19.30;93.30
15450;DHT22;7826;49.784;9.934;2022-08-25T00:52:24;19.30;93.50
15450;DHT22;7826;49.784;9.934;2022-08-25T00:58:00;19.20;94.00
15450;DHT22;7826;49.784;9.934;2022-08-25T01:00:32;19.10;94.20
15450;DHT22;7826;49.784;9.934;2022-08-25T01:02:59;19.10;94.30
15450;DHT22;7826;49.784;9.934;2022-08-25T01:05:26;19.10;94.60
15450;DHT22;7826;49.784;9.934;2022-08-25T01:07:54;19.10;94.80
15450;DHT22;7826;49.784;9.934;2022-08-25T01:10:22;19.10;95.10
15450;DHT22;7826;49.784;9.934;2022-08-25T01:12:50;19.10;95.30
15450;DHT22;7826;49.784;9.934;2022-08-25T01:15:18;19.10;95.30
15450;DHT22;7826;49.784;9.934;2022-08-25T01:17:55;19.00;95.40
15450;DHT22;7826;49.784;9.934;2022-08-25T01:20:24;19.00;95.90
15450;DHT22;7826;49.784;9.934;2022-08-25T01:22:54;18.90;96.10
15450;DHT22;7826;49.784;9.934;2022-08-25T01:25:31;18.90;96.60
15450;DHT22;7826;49.784;9.934;2022-08-25T01:28:00;18.80;96.90
15450;DHT22;7826;49.784;9.934;2022-08-25T01:30:27;18.80;97.20
15450;DHT22;7826;49.784;9.934;2022-08-25T01:32:53;18.80;97.50
15450;DHT22;7826;49.784;9.934;2022-08-25T01:35:20;18.80;97.90
15450;DHT22;7826;49.784;9.934;2022-08-25T01:37:47;18.70;97.90
15450;DHT22;7826;49.784;9.934;2022-08-25T01:40:14;18.70;98.30
15450;DHT22;7826;49.784;9.934;2022-08-25T01:45:33;18.70;99.00
15450;DHT22;7826;49.784;9.934;2022-08-25T01:48:00;18.70;98.90
15450;DHT22;7826;49.784;9.934;2022-08-25T01:50:27;18.70;99.20
15450;DHT22;7826;49.784;9.934;2022-08-25T01:53:08;18.60;99.50
15450;DHT22;7826;49.784;9.934;2022-08-25T01:55:37;18.60;99.80
15450;DHT22;7826;49.784;9.934;2022-08-25T01:58:29;18.60;99.90
15450;DHT22;7826;49.784;9.934;2022-08-25T02:01:00;18.50;99.90
15450;DHT22;7826;49.784;9.934;2022-08-25T02:03:28;18.50;99.90
15450;DHT22;7826;49.784;9.934;2022-08-25T02:05:58;18.40;99.90
15450;DHT22;7826;49.784;9.934;2022-08-25T02:08:25;18.40;99.90
15450;DHT22;7826;49.784;9.934;2022-08-25T02:10:53;18.40;99.90
15450;DHT22;7826;49.784;9.934;2022-08-25T02:13:21;18.40;99.90
15450;DHT22;7826;49.784;9.934;2022-08-25T02:15:51;18.40;99.90
15450;DHT22;7826;49.784;9.934;2022-08-25T02:18:19;18.30;99.90
15450;DHT22;7826;49.784;9.934;2022-08-25T02:20:45;18.30;99.90
15450;DHT22;7826;49.784;9.934;2022-08-25T02:23:13;18.30;99.90
15450;DHT22;7826;49.784;9.934;2022-08-25T02:25:40;18.30;99.90
15450;DHT22;7826;49.784;9.934;2022-08-25T02:28:08;18.30;99.90
15450;DHT22;7826;49.784;9.934;2022-08-25T02:30:36;18.20;99.90
15450;DHT22;7826;49.784;9.934;2022-08-25T02:33:11;18.20;99.90
15450;DHT22;7826;49.784;9.934;2022-08-25T02:35:39;18.20;99.90
15450;DHT22;7826;49.784;9.934;2022-08-25T02:38:05;18.20;99.90
15450;DHT22;7826;49.784;9.934;2022-08-25T02:40:32;18.20;99.90
15450;DHT22;7826;49.784;9.934;2022-08-25T02:42:58;18.20;99.90
15450;DHT22;7826;49.784;9.934;2022-08-25T02:45:25;18.20;99.90
15450;DHT22;7826;49.784;9.934;2022-08-25T02:47:51;18.10;99.90
15450;DHT22;7826;49.784;9.934;2022-08-25T02:50:18;18.10;99.90
15450;DHT22;7826;49.784;9.934;2022-08-25T02:52:45;18.10;99.90
15450;DHT22;7826;49.784;9.934;2022-08-25T02:55:14;18.10;99.90
15450;DHT22;7826;49.784;9.934;2022-08-25T02:57:41;18.00;99.90
15450;DHT22;7826;49.784;9.934;2022-08-25T03:00:10;18.00;99.90
15450;DHT22;7826;49.784;9.934;2022-08-25T03:02:37;18.00;99.90
15450;DHT22;7826;49.784;9.934;2022-08-25T03:05:04;17.90;99.90
15450;DHT22;7826;49.784;9.934;2022-08-25T03:07:33;18.00;99.90
15450;DHT22;7826;49.784;9.934;2022-08-25T03:10:04;17.90;99.90
15450;DHT22;7826;49.784;9.934;2022-08-25T03:12:31;17.90;99.90
15450;DHT22;7826;49.784;9.934;2022-08-25T03:14:58;17.90;99.90
15450;DHT22;7826;49.784;9.934;2022-08-25T03:17:44;17.90;99.90
15450;DHT22;7826;49.784;9.934;2022-08-25T03:20:12;17.90;99.90
15450;DHT22;7826;49.784;9.934;2022-08-25T03:22:38;17.80;99.90
15450;DHT22;7826;49.784;9.934;2022-08-25T03:25:05;17.80;99.90
15450;DHT22;7826;49.784;9.934;2022-08-25T03:27:55;17.80;99.90
15450;DHT22;7826;49.784;9.934;2022-08-25T03:30:22;17.70;99.90
15450;DHT22;7826;49.784;9.934;2022-08-25T03:32:49;17.70;99.90
15450;DHT22;7826;49.784;9.934;2022-08-25T03:35:15;17.70;99.90
15450;DHT22;7826;49.784;9.934;2022-08-25T03:37:42;17.70;99.90
15450;DHT22;7826;49.784;9.934;2022-08-25T03:40:11;17.70;99.90
15450;DHT22;7826;49.784;9.934;2022-08-25T03:42:43;17.60;99.90
15450;DHT22;7826;49.784;9.934;2022-08-25T03:45:12;17.70;99.90
15450;DHT22;7826;49.784;9.934;2022-08-25T03:47:39;17.70;99.90
15450;DHT22;7826;49.784;9.934;2022-08-25T03:50:09;17.70;99.90
15450;DHT22;7826;49.784;9.934;2022-08-25T03:52:36;17.60;99.90
15450;DHT22;7826;49.784;9.934;2022-08-25T03:55:04;17.60;99.90
15450;DHT22;7826;49.784;9.934;2022-08-25T03:57:33;17.60;99.90
15450;DHT22;7826;49.784;9.934;2022-08-25T03:59:59;17.60;99.90
15450;DHT22;7826;49.784;9.934;2022-08-25T04:02:26;17.60;99.90
15450;DHT22;7826;49.784;9.934;2022-08-25T04:04:52;17.50;99.90
15450;DHT22;7826;49.784;9.934;2022-08-25T04:07:19;17.50;99.90
15450;DHT22;7826;49.784;9.934;2022-08-25T04:09:45;17.50;99.90
15450;DHT22;7826;49.784;9.934;2022-08-25T04:12:11;17.50;99.90
15450;DHT22;7826;49.784;9.934;2022-08-25T04:14:38;17.50;99.90
15450;DHT22;7826;49.784;9.934;2022-08-25T04:17:04;17.50;99.90
15450;DHT22;7826;49.784;9.934;2022-08-25T04:19:30;17.50;99.90
15450;DHT22;7826;49.784;9.934;2022-08-25T04:21:57;17.50;99.90
15450;DHT22;7826;49.784;9.934;2022-08-25T04:24:23;17.50;99.90
15450;DHT22;7826;49.784;9.934;2022-08-25T04:26:50;17.40;99.90
15450;DHT22;7826;49.784;9.934;2022-08-25T04:29:21;17.40;99.90
15450;DHT22;7826;49.784;9.934;2022-08-25T04:31:48;17.40;99.90
15450;DHT22;7826;49.784;9.934;2022-08-25T04:34:20;17.40;99.90
15450;DHT22;7826;49.784;9.934;2022-08-25T04:36:47;17.40;99.90
15450;DHT22;7826;49.784;9.934;2022-08-25T04:39:16;17.40;99.90
15450;DHT22;7826;49.784;9.934;2022-08-25T04:41:49;17.50;99.90
15450;DHT22;7826;49.784;9.934;2022-08-25T04:44:16;17.50;99.90
15450;DHT22;7826;49.784;9.934;2022-08-25T04:46:43;17.50;99.90
15450;DHT22;7826;49.784;9.934;2022-08-25T04:49:09;17.60;99.90
15450;DHT22;7826;49.784;9.934;2022-08-25T04:51:39;17.60;99.90
15450;DHT22;7826;49.784;9.934;2022-08-25T04:54:09;17.60;99.90
15450;DHT22;7826;49.784;9.934;2022-08-25T04:56:39;17.60;99.90
15450;DHT22;7826;49.784;9.934;2022-08-25T04:59:10;17.70;99.90
15450;DHT22;7826;49.784;9.934;2022-08-25T05:01:37;17.70;99.90
15450;DHT22;7826;49.784;9.934;2022-08-25T05:04:06;17.70;99.90
15450;DHT22;7826;49.784;9.934;2022-08-25T05:06:33;17.70;99.90
15450;DHT22;7826;49.784;9.934;2022-08-25T05:09:00;17.70;99.90
15450;DHT22;7826;49.784;9.934;2022-08-25T05:11:27;17.80;99.90
15450;DHT22;7826;49.784;9.934;2022-08-25T05:13:55;17.70;99.90
15450;DHT22;7826;49.784;9.934;2022-08-25T05:16:24;17.80;99.90
15450;DHT22;7826;49.784;9.934;2022-08-25T05:18:51;17.80;99.90
15450;DHT22;7826;49.784;9.934;2022-08-25T05:21:20;18.00;99.90
15450;DHT22;7826;49.784;9.934;2022-08-25T05:23:47;18.20;99.90
15450;DHT22;7826;49.784;9.934;2022-08-25T05:26:19;18.40;99.90
15450;DHT22;7826;49.784;9.934;2022-08-25T05:28:50;18.60;99.90
15450;DHT22;7826;49.784;9.934;2022-08-25T05:31:17;18.80;99.90
15450;DHT22;7826;49.784;9.934;2022-08-25T05:33:44;19.00;99.90
15450;DHT22;7826;49.784;9.934;2022-08-25T05:36:12;19.20;99.90
15450;DHT22;7826;49.784;9.934;2022-08-25T05:38:39;19.50;99.90
15450;DHT22;7826;49.784;9.934;2022-08-25T05:41:09;19.80;99.90
15450;DHT22;7826;49.784;9.934;2022-08-25T05:43:40;20.00;99.90
15450;DHT22;7826;49.784;9.934;2022-08-25T05:46:07;20.10;99.90
15450;DHT22;7826;49.784;9.934;2022-08-25T05:48:35;20.50;99.90
15450;DHT22;7826;49.784;9.934;2022-08-25T05:51:03;20.60;99.90
15450;DHT22;7826;49.784;9.934;2022-08-25T05:53:31;20.80;99.90
15450;DHT22;7826;49.784;9.934;2022-08-25T05:55:58;21.10;99.90
15450;DHT22;7826;49.784;9.934;2022-08-25T05:58:27;21.30;99.70
15450;DHT22;7826;49.784;9.934;2022-08-25T06:00:55;21.40;98.80
15450;DHT22;7826;49.784;9.934;2022-08-25T06:03:22;21.60;98.00
15450;DHT22;7826;49.784;9.934;2022-08-25T06:05:48;21.70;97.10
15450;DHT22;7826;49.784;9.934;2022-08-25T06:08:15;21.50;96.30
15450;DHT22;7826;49.784;9.934;2022-08-25T06:10:41;21.60;96.70
15450;DHT22;7826;49.784;9.934;2022-08-25T06:13:08;21.60;96.20
15450;DHT22;7826;49.784;9.934;2022-08-25T06:15:34;21.80;96.20
15450;DHT22;7826;49.784;9.934;2022-08-25T06:18:01;21.90;96.00
15450;DHT22;7826;49.784;9.934;2022-08-25T06:20:29;22.00;95.50
15450;DHT22;7826;49.784;9.934;2022-08-25T06:22:57;21.90;95.50
15450;DHT22;7826;49.784;9.934;2022-08-25T06:25:26;21.80;95.70
15450;DHT22;7826;49.784;9.934;2022-08-25T06:27:53;21.90;95.40
15450;DHT22;7826;49.784;9.934;2022-08-25T06:30:22;21.90;96.00
15450;DHT22;7826;49.784;9.934;2022-08-25T06:32:49;22.00;95.60
15450;DHT22;7826;49.784;9.934;2022-08-25T06:35:18;21.90;95.80
15450;DHT22;7826;49.784;9.934;2022-08-25T06:37:45;21.80;95.60
15450;DHT22;7826;49.784;9.934;2022-08-25T06:40:12;21.70;96.20
15450;DHT22;7826;49.784;9.934;2022-08-25T06:42:39;21.90;96.10
15450;DHT22;7826;49.784;9.934;2022-08-25T06:45:06;22.10;96.00
15450;DHT22;7826;49.784;9.934;2022-08-25T06:47:33;22.20;95.40
15450;DHT22;7826;49.784;9.934;2022-08-25T06:50:00;22.50;95.50
15450;DHT22;7826;49.784;9.934;2022-08-25T06:52:29;22.60;94.00
15450;DHT22;7826;49.784;9.934;2022-08-25T06:54:56;22.80;94.30
15450;DHT22;7826;49.784;9.934;2022-08-25T06:57:23;23.00;93.60
15450;DHT22;7826;49.784;9.934;2022-08-25T06:59:49;23.10;92.90
15450;DHT22;7826;49.784;9.934;2022-08-25T07:02:16;23.20;92.70
15450;DHT22;7826;49.784;9.934;2022-08-25T07:04:42;23.20;92.30
15450;DHT22;7826;49.784;9.934;2022-08-25T07:07:09;23.40;92.70
15450;DHT22;7826;49.784;9.934;2022-08-25T07:09:35;23.60;92.40
15450;DHT22;7826;49.784;9.934;2022-08-25T07:12:02;23.80;92.30
15450;DHT22;7826;49.784;9.934;2022-08-25T07:14:29;24.00;91.60
15450;DHT22;7826;49.784;9.934;2022-08-25T07:16:56;24.10;90.50
15450;DHT22;7826;49.784;9.934;2022-08-25T07:19:23;24.30;91.10
15450;DHT22;7826;49.784;9.934;2022-08-25T07:21:52;24.40;90.60
15450;DHT22;7826;49.784;9.934;2022-08-25T07:24:19;24.50;89.20
15450;DHT22;7826;49.784;9.934;2022-08-25T07:26:46;24.60;88.00
15450;DHT22;7826;49.784;9.934;2022-08-25T07:29:18;24.60;87.40
15450;DHT22;7826;49.784;9.934;2022-08-25T07:31:46;24.90;87.70
15450;DHT22;7826;49.784;9.934;2022-08-25T07:34:12;25.40;87.00
15450;DHT22;7826;49.784;9.934;2022-08-25T07:36:57;25.90;85.40
15450;DHT22;7826;49.784;9.934;2022-08-25T07:39:25;26.20;82.20
15450;DHT22;7826;49.784;9.934;2022-08-25T07:41:52;26.30;81.10
15450;DHT22;7826;49.784;9.934;2022-08-25T07:44:21;26.60;79.40
15450;DHT22;7826;49.784;9.934;2022-08-25T07:46:48;27.00;80.60
15450;DHT22;7826;49.784;9.934;2022-08-25T07:49:15;27.50;77.10
15450;DHT22;7826;49.784;9.934;2022-08-25T07:51:42;27.60;74.10
15450;DHT22;7826;49.784;9.934;2022-08-25T07:54:09;27.50;76.70
15450;DHT22;7826;49.784;9.934;2022-08-25T07:56:35;27.80;75.30
15450;DHT22;7826;49.784;9.934;2022-08-25T07:59:01;27.70;71.90
15450;DHT22;7826;49.784;9.934;2022-08-25T08:01:28;27.90;72.90
15450;DHT22;7826;49.784;9.934;2022-08-25T08:03:54;27.90;71.40
15450;DHT22;7826;49.784;9.934;2022-08-25T08:06:24;28.20;72.00
15450;DHT22;7826;49.784;9.934;2022-08-25T08:08:51;28.00;69.70
15450;DHT22;7826;49.784;9.934;2022-08-25T08:11:26;28.00;69.70
15450;DHT22;7826;49.784;9.934;2022-08-25T08:13:53;28.00;68.80
15450;DHT22;7826;49.784;9.934;2022-08-25T08:16:23;28.10;69.40
15450;DHT22;7826;49.784;9.934;2022-08-25T08:18:49;28.80;71.00
15450;DHT22;7826;49.784;9.934;2022-08-25T08:21:19;29.50;68.70
15450;DHT22;7826;49.784;9.934;2022-08-25T08:23:47;30.50;62.80
15450;DHT22;7826;49.784;9.934;2022-08-25T08:26:14;31.00;62.10
15450;DHT22;7826;49.784;9.934;2022-08-25T08:28:40;31.20;61.90
15450;DHT22;7826;49.784;9.934;2022-08-25T08:31:07;32.00;59.70
15450;DHT22;7826;49.784;9.934;2022-08-25T08:33:42;32.20;58.60
15450;DHT22;7826;49.784;9.934;2022-08-25T08:36:10;32.20;56.80
15450;DHT22;7826;49.784;9.934;2022-08-25T08:38:39;32.40;55.70
15450;DHT22;7826;49.784;9.934;2022-08-25T08:44:07;32.50;55.80
15450;DHT22;7826;49.784;9.934;2022-08-25T08:46:48;33.00;55.10
15450;DHT22;7826;49.784;9.934;2022-08-25T08:49:29;32.80;54.30
15450;DHT22;7826;49.784;9.934;2022-08-25T08:52:00;32.80;54.20
15450;DHT22;7826;49.784;9.934;2022-08-25T08:54:31;32.30;52.80
15450;DHT22;7826;49.784;9.934;2022-08-25T08:57:10;31.50;54.30
15450;DHT22;7826;49.784;9.934;2022-08-25T08:59:43;31.40;55.10
15450;DHT22;7826;49.784;9.934;2022-08-25T09:02:17;31.50;55.40
15450;DHT22;7826;49.784;9.934;2022-08-25T09:04:48;31.30;54.90
15450;DHT22;7826;49.784;9.934;2022-08-25T09:07:23;31.20;55.10
15450;DHT22;7826;49.784;9.934;2022-08-25T09:09:52;31.20;56.10
15450;DHT22;7826;49.784;9.934;2022-08-25T09:12:33;31.00;57.20
15450;DHT22;7826;49.784;9.934;2022-08-25T09:23:12;29.60;58.70
15450;DHT22;7826;49.784;9.934;2022-08-25T09:25:53;29.80;58.70
15450;DHT22;7826;49.784;9.934;2022-08-25T09:28:42;29.80;57.70
15450;DHT22;7826;49.784;9.934;2022-08-25T09:31:25;29.80;57.90
15450;DHT22;7826;49.784;9.934;2022-08-25T09:33:54;30.10;57.10
15450;DHT22;7826;49.784;9.934;2022-08-25T09:36:22;30.00;56.50
15450;DHT22;7826;49.784;9.934;2022-08-25T09:38:49;30.20;56.90
15450;DHT22;7826;49.784;9.934;2022-08-25T09:41:17;30.40;56.20
15450;DHT22;7826;49.784;9.934;2022-08-25T09:43:59;30.90;56.10
15450;DHT22;7826;49.784;9.934;2022-08-25T09:46:28;31.30;53.90
15450;DHT22;7826;49.784;9.934;2022-08-25T09:49:13;30.90;53.60
15450;DHT22;7826;49.784;9.934;2022-08-25T09:51:41;30.30;54.50
15450;DHT22;7826;49.784;9.934;2022-08-25T09:56:56;29.80;56.90
15450;DHT22;7826;49.784;9.934;2022-08-25T09:59:31;30.10;56.10
15450;DHT22;7826;49.784;9.934;2022-08-25T10:02:03;30.40;56.00
15450;DHT22;7826;49.784;9.934;2022-08-25T10:04:38;30.10;54.50
15450;DHT22;7826;49.784;9.934;2022-08-25T10:09:53;29.30;56.50
15450;DHT22;7826;49.784;9.934;2022-08-25T10:12:30;28.50;58.40
15450;DHT22;7826;49.784;9.934;2022-08-25T10:14:58;28.40;59.30
15450;DHT22;7826;49.784;9.934;2022-08-25T10:17:28;28.10;59.20
15450;DHT22;7826;49.784;9.934;2022-08-25T10:20:16;27.80;59.20
15450;DHT22;7826;49.784;9.934;2022-08-25T10:22:45;27.60;60.60
15450;DHT22;7826;49.784;9.934;2022-08-25T10:25:16;27.40;61.80
15450;DHT22;7826;49.784;9.934;2022-08-25T10:30:27;27.00;62.60
15450;DHT22;7826;49.784;9.934;2022-08-25T10:36:14;26.70;64.00
15450;DHT22;7826;49.784;9.934;2022-08-25T10:38:45;26.80;63.40
15450;DHT22;7826;49.784;9.934;2022-08-25T10:44:20;26.40;63.80
15450;DHT22;7826;49.784;9.934;2022-08-25T10:50:41;26.30;65.10
15450;DHT22;7826;49.784;9.934;2022-08-25T10:58:29;25.90;63.00
15450;DHT22;7826;49.784;9.934;2022-08-25T11:01:52;25.80;64.40
15450;DHT22;7826;49.784;9.934;2022-08-25T11:04:04;25.90;63.20
15450;DHT22;7826;49.784;9.934;2022-08-25T11:06:43;26.10;63.90
15450;DHT22;7826;49.784;9.934;2022-08-25T11:09:17;26.20;63.30
15450;DHT22;7826;49.784;9.934;2022-08-25T11:12:04;26.30;63.20
15450;DHT22;7826;49.784;9.934;2022-08-25T11:14:37;26.50;62.90
15450;DHT22;7826;49.784;9.934;2022-08-25T11:17:28;26.60;62.20
15450;DHT22;7826;49.784;9.934;2022-08-25T11:20:04;26.70;62.00
15450;DHT22;7826;49.784;9.934;2022-08-25T11:22:54;26.70;61.20
15450;DHT22;7826;49.784;9.934;2022-08-25T11:25:33;26.60;60.90
15450;DHT22;7826;49.784;9.934;2022-08-25T11:28:15;26.90;60.60
15450;DHT22;7826;49.784;9.934;2022-08-25T11:30:43;27.20;60.10
15450;DHT22;7826;49.784;9.934;2022-08-25T11:33:15;27.50;59.60
15450;DHT22;7826;49.784;9.934;2022-08-25T11:35:48;27.70;59.00
15450;DHT22;7826;49.784;9.934;2022-08-25T11:44:16;28.10;58.20
15450;DHT22;7826;49.784;9.934;2022-08-25T11:47:19;28.30;57.80
15450;DHT22;7826;49.784;9.934;2022-08-25T11:49:57;28.50;57.10
15450;DHT22;7826;49.784;9.934;2022-08-25T11:55:44;28.70;56.40
15450;DHT22;7826;49.784;9.934;2022-08-25T12:00:42;28.50;56.40
15450;DHT22;7826;49.784;9.934;2022-08-25T12:06:26;28.60;56.50
15450;DHT22;7826;49.784;9.934;2022-08-25T12:32:22;29.10;54.80
15450;DHT22;7826;49.784;9.934;2022-08-25T12:37:25;29.50;53.70
15450;DHT22;7826;49.784;9.934;2022-08-25T12:39:57;29.60;52.90
15450;DHT22;7826;49.784;9.934;2022-08-25T12:42:36;29.60;52.80
15450;DHT22;7826;49.784;9.934;2022-08-25T12:45:12;29.50;52.60
15450;DHT22;7826;49.784;9.934;2022-08-25T12:47:43;29.40;53.20
15450;DHT22;7826;49.784;9.934;2022-08-25T12:50:43;29.40;53.60
15450;DHT22;7826;49.784;9.934;2022-08-25T12:56:22;29.20;53.70
15450;DHT22;7826;49.784;9.934;2022-08-25T13:07:41;29.40;54.30
15450;DHT22;7826;49.784;9.934;2022-08-25T13:15:43;29.60;53.10
15450;DHT22;7826;49.784;9.934;2022-08-25T13:18:14;29.90;52.50
15450;DHT22;7826;49.784;9.934;2022-08-25T13:20:41;29.90;52.50
15450;DHT22;7826;49.784;9.934;2022-08-25T13:23:08;29.90;52.50
15450;DHT22;7826;49.784;9.934;2022-08-25T13:25:39;29.80;51.70
15450;DHT22;7826;49.784;9.934;2022-08-25T13:28:29;29.90;51.90
15450;DHT22;7826;49.784;9.934;2022-08-25T13:31:01;29.70;52.20
15450;DHT22;7826;49.784;9.934;2022-08-25T13:33:28;29.90;52.80
15450;DHT22;7826;49.784;9.934;2022-08-25T13:35:56;30.10;52.50
15450;DHT22;7826;49.784;9.934;2022-08-25T13:38:43;30.20;51.90
15450;DHT22;7826;49.784;9.934;2022-08-25T13:41:25;29.90;51.50
15450;DHT22;7826;49.784;9.934;2022-08-25T13:43:52;29.80;51.80
15450;DHT22;7826;49.784;9.934;2022-08-25T13:46:21;29.90;51.70
15450;DHT22;7826;49.784;9.934;2022-08-25T13:48:48;29.90;52.30
15450;DHT22;7826;49.784;9.934;2022-08-25T13:51:24;29.90;52.00
15450;DHT22;7826;49.784;9.934;2022-08-25T13:54:07;30.10;52.60
15450;DHT22;7826;49.784;9.934;2022-08-25T13:56:36;30.30;52.30
15450;DHT22;7826;49.784;9.934;2022-08-25T13:59:05;30.30;51.80
15450;DHT22;7826;49.784;9.934;2022-08-25T14:01:38;30.30;51.70
15450;DHT22;7826;49.784;9.934;2022-08-25T14:04:29;30.20;51.90
15450;DHT22;7826;49.784;9.934;2022-08-25T14:09:55;30.00;50.90
15450;DHT22;7826;49.784;9.934;2022-08-25T14:15:01;30.00;51.20
15450;DHT22;7826;49.784;9.934;2022-08-25T14:17:28;30.20;51.10
15450;DHT22;7826;49.784;9.934;2022-08-25T14:19:56;30.10;51.20
15450;DHT22;7826;49.784;9.934;2022-08-25T14:22:23;30.30;51.30
15450;DHT22;7826;49.784;9.934;2022-08-25T14:24:54;30.40;50.40
15450;DHT22;7826;49.784;9.934;2022-08-25T14:27:21;30.60;49.20
15450;DHT22;7826;49.784;9.934;2022-08-25T14:29:48;30.70;48.70
15450;DHT22;7826;49.784;9.934;2022-08-25T14:32:15;30.90;48.20
15450;DHT22;7826;49.784;9.934;2022-08-25T14:34:42;31.00;47.90
15450;DHT22;7826;49.784;9.934;2022-08-25T14:37:13;31.10;47.80
15450;DHT22;7826;49.784;9.934;2022-08-25T14:39:40;31.10;47.40
15450;DHT22;7826;49.784;9.934;2022-08-25T14:42:06;31.10;47.20
15450;DHT22;7826;49.784;9.934;2022-08-25T14:44:33;31.10;47.50
15450;DHT22;7826;49.784;9.934;2022-08-25T14:47:00;31.10;47.10
15450;DHT22;7826;49.784;9.934;2022-08-25T14:49:34;30.80;47.10
15450;DHT22;7826;49.784;9.934;2022-08-25T14:52:13;30.60;47.70
15450;DHT22;7826;49.784;9.934;2022-08-25T14:54:41;30.70;47.90
15450;DHT22;7826;49.784;9.934;2022-08-25T14:57:07;30.90;47.40
15450;DHT22;7826;49.784;9.934;2022-08-25T14:59:34;31.00;47.20
15450;DHT22;7826;49.784;9.934;2022-08-25T15:02:00;31.10;47.20
15450;DHT22;7826;49.784;9.934;2022-08-25T15:04:28;31.20;47.00
15450;DHT22;7826;49.784;9.934;2022-08-25T15:06:57;31.30;47.30
15450;DHT22;7826;49.784;9.934;2022-08-25T15:09:24;31.20;47.80
15450;DHT22;7826;49.784;9.934;2022-08-25T15:11:55;30.90;48.90
15450;DHT22;7826;49.784;9.934;2022-08-25T15:14:23;30.70;49.60
15450;DHT22;7826;49.784;9.934;2022-08-25T15:16:53;30.70;50.00
15450;DHT22;7826;49.784;9.934;2022-08-25T15:19:23;30.70;50.40
15450;DHT22;7826;49.784;9.934;2022-08-25T15:21:50;30.50;50.00
15450;DHT22;7826;49.784;9.934;2022-08-25T15:24:17;30.50;50.10
15450;DHT22;7826;49.784;9.934;2022-08-25T15:26:54;30.40;50.40
15450;DHT22;7826;49.784;9.934;2022-08-25T15:29:23;30.30;51.00
15450;DHT22;7826;49.784;9.934;2022-08-25T15:31:51;30.30;50.90
15450;DHT22;7826;49.784;9.934;2022-08-25T15:34:17;30.10;51.00
15450;DHT22;7826;49.784;9.934;2022-08-25T15:36:44;30.00;51.20
15450;DHT22;7826;49.784;9.934;2022-08-25T15:39:11;29.90;51.50
15450;DHT22;7826;49.784;9.934;2022-08-25T15:41:38;29.70;51.90
15450;DHT22;7826;49.784;9.934;2022-08-25T15:44:06;29.60;52.20
15450;DHT22;7826;49.784;9.934;2022-08-25T15:46:35;29.60;52.40
15450;DHT22;7826;49.784;9.934;2022-08-25T15:49:02;29.40;52.80
15450;DHT22;7826;49.784;9.934;2022-08-25T15:51:28;29.40;53.10
15450;DHT22;7826;49.784;9.934;2022-08-25T15:53:55;29.40;53.80
15450;DHT22;7826;49.784;9.934;2022-08-25T15:56:22;29.40;54.40
15450;DHT22;7826;49.784;9.934;2022-08-25T15:58:50;29.30;54.50
15450;DHT22;7826;49.784;9.934;2022-08-25T16:01:24;29.20;54.80
15450;DHT22;7826;49.784;9.934;2022-08-25T16:03:51;29.10;55.00
15450;DHT22;7826;49.784;9.934;2022-08-25T16:06:18;29.10;55.00
15450;DHT22;7826;49.784;9.934;2022-08-25T16:08:44;29.00;55.10
15450;DHT22;7826;49.784;9.934;2022-08-25T16:11:22;29.10;55.20
15450;DHT22;7826;49.784;9.934;2022-08-25T16:13:50;29.10;54.90
15450;DHT22;7826;49.784;9.934;2022-08-25T16:16:19;29.20;54.70
15450;DHT22;7826;49.784;9.934;2022-08-25T16:18:46;29.30;54.70
15450;DHT22;7826;49.784;9.934;2022-08-25T16:21:15;29.30;54.10
15450;DHT22;7826;49.784;9.934;2022-08-25T16:23:42;29.30;54.10
15450;DHT22;7826;49.784;9.934;2022-08-25T16:26:09;29.30;53.60
15450;DHT22;7826;49.784;9.934;2022-08-25T16:28:37;29.30;53.50
15450;DHT22;7826;49.784;9.934;2022-08-25T16:31:04;29.40;53.60
15450;DHT22;7826;49.784;9.934;2022-08-25T16:33:31;29.30;52.70
15450;DHT22;7826;49.784;9.934;2022-08-25T16:36:10;29.30;52.70
15450;DHT22;7826;49.784;9.934;2022-08-25T16:38:38;29.30;52.50
15450;DHT22;7826;49.784;9.934;2022-08-25T16:41:10;29.30;51.90
15450;DHT22;7826;49.784;9.934;2022-08-25T16:43:37;29.30;51.80
15450;DHT22;7826;49.784;9.934;2022-08-25T16:46:06;29.40;53.00
15450;DHT22;7826;49.784;9.934;2022-08-25T16:48:34;29.40;52.70
15450;DHT22;7826;49.784;9.934;2022-08-25T16:51:10;29.30;52.60
15450;DHT22;7826;49.784;9.934;2022-08-25T16:53:37;29.30;53.00
15450;DHT22;7826;49.784;9.934;2022-08-25T16:56:22;29.30;53.50
15450;DHT22;7826;49.784;9.934;2022-08-25T16:58:51;29.30;53.50
15450;DHT22;7826;49.784;9.934;2022-08-25T17:01:19;29.20;53.40
15450;DHT22;7826;49.784;9.934;2022-08-25T17:03:49;29.20;53.70
15450;DHT22;7826;49.784;9.934;2022-08-25T17:06:16;29.20;53.80
15450;DHT22;7826;49.784;9.934;2022-08-25T17:08:42;29.20;53.80
15450;DHT22;7826;49.784;9.934;2022-08-25T17:11:15;29.20;54.10
15450;DHT22;7826;49.784;9.934;2022-08-25T17:13:44;29.20;54.10
15450;DHT22;7826;49.784;9.934;2022-08-25T17:16:12;29.10;54.00
15450;DHT22;7826;49.784;9.934;2022-08-25T17:18:39;29.10;53.90
15450;DHT22;7826;49.784;9.934;2022-08-25T17:21:09;29.10;54.00
15450;DHT22;7826;49.784;9.934;2022-08-25T17:23:39;29.10;54.30
15450;DHT22;7826;49.784;9.934;2022-08-25T17:26:06;29.00;54.20
15450;DHT22;7826;49.784;9.934;2022-08-25T17:28:33;29.10;54.30
15450;DHT22;7826;49.784;9.934;2022-08-25T17:31:00;29.00;54.40
15450;DHT22;7826;49.784;9.934;2022-08-25T17:33:26;28.90;54.20
15450;DHT22;7826;49.784;9.934;2022-08-25T17:35:54;29.00;54.40
15450;DHT22;7826;49.784;9.934;2022-08-25T17:38:24;28.90;54.30
15450;DHT22;7826;49.784;9.934;2022-08-25T17:40:52;28.90;54.40
15450;DHT22;7826;49.784;9.934;2022-08-25T17:43:20;28.90;54.30
15450;DHT22;7826;49.784;9.934;2022-08-25T17:45:47;28.80;54.20